Time;durP1;ratioP1;P1;durP2;ratioP2;P2;SDS_P1;SDS_P2;PMS_P1;PMS_P2;Temp;Humidity;BMP_temperature;BMP_pressure;BME280_temperature;BME280_humidity;BME280_pressure;Samples;Min_cycle;Max_cycle;Signal;HPM_P1;HPM_P2
2022/07/14 00:02:24;;;;;;;;;;;;;;;12.88;100.00;101304.63;5071315;28;19921;-83
2022/07/14 00:04:57;;;;;;;;;;;;;;;12.86;100.00;101311.47;5059847;28;19924;-81
2022/07/14 00:07:30;;;;;;;;;;;;;;;12.82;100.00;101299.47;5070468;28;19928;-83
2022/07/14 00:10:03;;;;;;;;;;;;;;;12.80;100.00;101305.22;5068140;28;19921;-84
2022/07/14 00:12:36;;;;;;;;;;;;;;;12.88;100.00;101306.53;5066998;28;19927;-82
2022/07/14 00:15:09;;;;;;;;;;;;;;;12.83;100.00;101303.81;5072901;28;19946;-83
2022/07/14 00:17:44;;;;;;;;;;;;;;;12.69;100.00;101303.59;5065646;28;19924;-82
2022/07/14 00:20:17;;;;;;;;;;;;;;;12.64;100.00;101301.72;5073088;28;20003;-82
2022/07/14 00:22:45;;;;;;;;;;;;;;;12.64;100.00;101309.09;5070941;28;19927;-83
2022/07/14 00:25:18;;;;;;;;;;;;;;;12.57;100.00;101309.41;5062590;28;19925;-83
2022/07/14 00:27:51;;;;;;;;;;;;;;;12.60;100.00;101306.09;5062725;28;19929;-82
2022/07/14 00:30:24;;;;;;;;;;;;;;;12.47;100.00;101310.25;5059105;28;19920;-83
2022/07/14 00:32:59;;;;;;;;;;;;;;;12.36;100.00;101308.63;5070764;28;19936;-82
2022/07/14 00:35:32;;;;;;;;;;;;;;;12.40;100.00;101306.97;5065976;28;19932;-81
2022/07/14 00:38:00;;;;;;;;;;;;;;;12.44;100.00;101310.78;5061060;28;19927;-82
2022/07/14 00:40:33;;;;;;;;;;;;;;;12.44;100.00;101301.78;5057454;28;19920;-83
2022/07/14 00:43:01;;;;;;;;;;;;;;;12.30;100.00;101304.28;5066105;28;19924;-84
2022/07/14 00:45:34;;;;;;;;;;;;;;;12.34;100.00;101303.44;5074570;28;19920;-82
2022/07/14 00:48:09;;;;;;;;;;;;;;;12.30;100.00;101304.28;5065342;28;19924;-82
2022/07/14 00:50:42;;;;;;;;;;;;;;;12.27;100.00;101310.28;5063385;28;20369;-83
2022/07/14 00:53:16;;;;;;;;;;;;;;;12.30;100.00;101313.28;5063611;28;19924;-83
2022/07/14 00:55:49;;;;;;;;;;;;;;;12.23;100.00;101316.28;5068836;28;19932;-82
2022/07/14 00:58:16;;;;;;;;;;;;;;;12.37;100.00;101310.25;5068054;28;19932;-83
2022/07/14 01:00:49;;;;;;;;;;;;;;;12.38;100.00;101309.97;5065824;28;19924;-83
2022/07/14 01:03:19;;;;;;;;;;;;;;;12.18;100.00;101315.47;5072432;28;19924;-83
2022/07/14 01:05:52;;;;;;;;;;;;;;;12.04;100.00;101316.06;5068905;28;19924;-82
2022/07/14 01:08:25;;;;;;;;;;;;;;;11.99;100.00;101313.31;5054601;28;20365;-83
2022/07/14 01:10:58;;;;;;;;;;;;;;;12.08;100.00;101322.59;5063638;28;20453;-82
2022/07/14 01:13:31;;;;;;;;;;;;;;;11.94;100.00;101315.19;5060954;28;19951;-81
2022/07/14 01:16:05;;;;;;;;;;;;;;;11.88;100.00;101314.38;5066475;28;19928;-84
2022/07/14 01:18:40;;;;;;;;;;;;;;;12.03;100.00;101316.34;5071506;28;19920;-83
2022/07/14 01:21:09;;;;;;;;;;;;;;;12.07;100.00;101310.03;5066647;28;19928;-82
2022/07/14 01:23:42;;;;;;;;;;;;;;;12.07;100.00;101311.97;5064992;28;20331;-83
2022/07/14 01:26:15;;;;;;;;;;;;;;;12.07;100.00;101307.31;5067068;28;19958;-83
2022/07/14 01:28:48;;;;;;;;;;;;;;;11.86;100.00;101306.47;5067906;28;20368;-84
2022/07/14 01:31:16;;;;;;;;;;;;;;;11.93;100.00;101302.66;5054615;28;19921;-83
2022/07/14 01:33:49;;;;;;;;;;;;;;;11.93;100.00;101297.19;5067653;28;19925;-83
2022/07/14 01:36:24;;;;;;;;;;;;;;;11.94;100.00;101298.84;5062643;28;19924;-82
2022/07/14 01:38:57;;;;;;;;;;;;;;;11.72;100.00;101297.19;5059834;28;19925;-83
2022/07/14 01:41:30;;;;;;;;;;;;;;;11.77;100.00;101299.94;5061783;28;19924;-89
2022/07/14 01:43:58;;;;;;;;;;;;;;;11.80;100.00;101299.38;5070363;28;19921;-89
2022/07/14 01:46:31;;;;;;;;;;;;;;;11.66;100.00;101303.75;5064541;28;19932;-87
2022/07/14 01:49:00;;;;;;;;;;;;;;;11.63;100.00;101293.38;5062758;28;19927;-88
2022/07/14 01:51:31;;;;;;;;;;;;;;;11.51;100.00;101289.00;5068825;28;20722;-89
2022/07/14 01:54:05;;;;;;;;;;;;;;;11.53;100.00;101291.44;5059492;28;19920;-88
2022/07/14 01:56:39;;;;;;;;;;;;;;;11.63;100.00;101282.47;5060541;28;19931;-87
2022/07/14 01:59:09;;;;;;;;;;;;;;;11.37;100.00;101296.09;5063209;28;20388;-88
2022/07/14 02:01:44;;;;;;;;;;;;;;;11.48;100.00;101297.72;5067704;28;19928;-87
2022/07/14 02:04:18;;;;;;;;;;;;;;;11.45;100.00;101298.28;5065525;28;19920;-87
2022/07/14 02:06:53;;;;;;;;;;;;;;;11.39;100.00;101299.34;5058262;28;19928;-85
2022/07/14 02:12:39;;;;;;;;;;;;;;;11.41;100.00;101297.19;5065652;28;19920;-88
2022/07/14 02:15:10;;;;;;;;;;;;;;;11.26;100.00;101305.31;5071101;28;19920;-87
2022/07/14 02:17:38;;;;;;;;;;;;;;;11.36;100.00;101300.69;5071119;28;19991;-87
2022/07/14 02:20:08;;;;;;;;;;;;;;;11.34;100.00;101291.19;5070903;28;19931;-86
2022/07/14 02:22:38;;;;;;;;;;;;;;;11.23;100.00;101304.75;5060793;28;19924;-85
2022/07/14 02:25:06;;;;;;;;;;;;;;;11.23;100.00;101298.50;5059945;28;19921;-87
2022/07/14 02:27:40;;;;;;;;;;;;;;;11.28;100.00;101295.78;5063911;28;19927;-87
2022/07/14 02:30:08;;;;;;;;;;;;;;;11.26;100.00;101289.78;5067222;28;19924;-87
2022/07/14 02:32:41;;;;;;;;;;;;;;;11.26;100.00;101286.25;5069794;28;20373;-87
2022/07/14 02:35:14;;;;;;;;;;;;;;;11.30;100.00;101288.16;5063343;28;19927;-87
2022/07/14 02:37:43;;;;;;;;;;;;;;;11.32;100.00;101293.34;5053981;28;20769;-87
2022/07/14 02:40:16;;;;;;;;;;;;;;;11.33;100.00;101295.78;5061931;28;19924;-86
2022/07/14 02:42:45;;;;;;;;;;;;;;;11.45;100.00;101300.16;5060502;28;19921;-89
2022/07/14 02:45:18;;;;;;;;;;;;;;;11.37;100.00;101296.09;5071135;28;19927;-88
2022/07/14 02:47:51;;;;;;;;;;;;;;;11.36;100.00;101300.69;5061334;28;20281;-88
2022/07/14 02:50:19;;;;;;;;;;;;;;;11.30;100.00;101303.69;5059212;28;19927;-89
2022/07/14 02:52:54;;;;;;;;;;;;;;;11.20;100.00;101301.78;5064893;28;19925;-90
2022/07/14 02:55:27;;;;;;;;;;;;;;;11.26;100.00;101299.88;5061216;28;19920;-88
2022/07/14 02:58:00;;;;;;;;;;;;;;;11.35;100.00;101303.69;5059026;28;20289;-89
2022/07/14 03:00:34;;;;;;;;;;;;;;;11.30;100.00;101307.22;5058689;28;20289;-87
2022/07/14 03:03:06;;;;;;;;;;;;;;;11.26;100.00;101310.78;5062298;28;19920;-90
2022/07/14 03:05:39;;;;;;;;;;;;;;;11.26;100.00;101297.97;5063787;28;19920;-86
2022/07/14 03:08:14;;;;;;;;;;;;;;;11.23;100.00;101304.75;5066934;28;20361;-89
2022/07/14 03:10:47;;;;;;;;;;;;;;;11.26;100.00;101305.31;5065131;28;19932;-89
2022/07/14 03:13:20;;;;;;;;;;;;;;;11.19;100.00;101309.13;5063334;28;20280;-90
2022/07/14 03:15:48;;;;;;;;;;;;;;;11.09;100.00;101305.53;5070476;28;19928;-87
2022/07/14 03:18:23;;;;;;;;;;;;;;;11.15;100.00;101309.94;5070456;28;20498;-92
2022/07/14 03:20:57;;;;;;;;;;;;;;;11.14;100.00;101319.19;5057865;28;20274;-90
2022/07/14 03:23:31;;;;;;;;;;;;;;;11.21;100.00;101315.13;5058455;28;19920;-89
2022/07/14 03:26:05;;;;;;;;;;;;;;;11.25;100.00;101312.66;5059127;28;19932;-91
2022/07/14 03:28:33;;;;;;;;;;;;;;;11.26;100.00;101310.78;5062218;28;19931;-88
2022/07/14 03:31:03;;;;;;;;;;;;;;;11.31;100.00;101308.03;5073456;28;19925;-88
2022/07/14 03:33:31;;;;;;;;;;;;;;;11.19;100.00;101313.75;5069255;28;19920;-88
2022/07/14 03:36:04;;;;;;;;;;;;;;;11.23;100.00;101314.84;5070425;28;19925;-87
2022/07/14 03:38:39;;;;;;;;;;;;;;;11.23;100.00;101314.84;5063472;28;19920;-89
2022/07/14 03:41:08;;;;;;;;;;;;;;;11.18;100.00;101312.09;5067187;28;19924;-84
2022/07/14 03:43:43;;;;;;;;;;;;;;;11.10;100.00;101316.16;5063223;28;19935;-86
2022/07/14 03:46:19;;;;;;;;;;;;;;;11.24;100.00;101316.47;5073666;28;19939;-87
2022/07/14 03:48:57;;;;;;;;;;;;;;;11.24;100.00;101319.19;5058677;28;19932;-87
2022/07/14 03:51:31;;;;;;;;;;;;;;;11.19;100.00;101317.28;5063141;28;20364;-89
2022/07/14 03:54:06;;;;;;;;;;;;;;;11.20;100.00;101312.69;5073149;28;19927;-89
2022/07/14 03:56:34;;;;;;;;;;;;;;;11.12;100.00;101313.19;5063937;28;19927;-86
2022/07/14 03:59:02;;;;;;;;;;;;;;;11.16;100.00;101311.56;5062078;28;20427;-87
2022/07/14 04:01:35;;;;;;;;;;;;;;;11.14;100.00;101308.28;5062725;28;19927;-87
2022/07/14 04:04:08;;;;;;;;;;;;;;;11.17;100.00;101307.75;5063997;28;19924;-85
2022/07/14 04:06:37;;;;;;;;;;;;;;;11.23;100.00;101306.69;5059940;28;19927;-88
2022/07/14 04:09:07;;;;;;;;;;;;;;;11.19;100.00;101305.59;5081300;28;19929;-87
2022/07/14 04:11:45;;;;;;;;;;;;;;;11.23;100.00;101310.22;5072676;28;19921;-87
2022/07/14 04:14:19;;;;;;;;;;;;;;;11.27;100.00;101312.41;5063686;28;19924;-87
2022/07/14 04:16:52;;;;;;;;;;;;;;;11.26;100.00;101314.31;5063313;28;19937;-87
2022/07/14 04:19:25;;;;;;;;;;;;;;;11.23;100.00;101309.41;5087698;28;19928;-88
2022/07/14 04:21:53;;;;;;;;;;;;;;;11.30;100.00;101317.34;5069764;28;20407;-87
2022/07/14 04:24:23;;;;;;;;;;;;;;;11.34;100.00;101321.16;5057808;28;19931;-87
2022/07/14 04:26:53;;;;;;;;;;;;;;;11.38;100.00;101325.78;5065458;28;20004;-88
2022/07/14 04:29:26;;;;;;;;;;;;;;;11.44;100.00;101320.34;5060792;28;20361;-89
2022/07/14 04:31:55;;;;;;;;;;;;;;;11.48;100.00;101324.19;5065051;28;19920;-89
2022/07/14 04:34:28;;;;;;;;;;;;;;;11.48;100.00;101324.97;5059815;28;19928;-89
2022/07/14 04:37:01;;;;;;;;;;;;;;;11.57;100.00;101330.72;5069269;28;19921;-89
2022/07/14 04:39:36;;;;;;;;;;;;;;;11.58;100.00;101324.19;5073533;28;20285;-88
2022/07/14 04:42:10;;;;;;;;;;;;;;;11.65;100.00;101329.38;5060782;28;19932;-88
2022/07/14 04:44:45;;;;;;;;;;;;;;;11.68;100.00;101320.63;5073114;28;19924;-87
2022/07/14 04:47:19;;;;;;;;;;;;;;;11.78;100.00;101325.28;5072032;28;19924;-87
2022/07/14 04:52:45;;;;;;;;;;;;;;;11.94;100.00;101331.56;5071093;28;20312;-89
2022/07/14 04:55:38;;;;;;;;;;;;;;;11.96;100.00;101332.97;5066140;28;19920;-89
2022/07/14 04:58:31;;;;;;;;;;;;;;;12.03;100.00;101335.44;5044212;28;19936;-89
2022/07/14 05:01:06;;;;;;;;;;;;;;;12.51;100.00;101335.06;5060333;28;19921;-88
2022/07/14 05:03:38;;;;;;;;;;;;;;;12.62;100.00;101333.13;5060900;28;19931;-88
2022/07/14 05:06:11;;;;;;;;;;;;;;;12.63;100.00;101329.31;5068177;28;19921;-88
2022/07/14 05:08:44;;;;;;;;;;;;;;;12.68;100.00;101334.75;5064805;28;19924;-87
2022/07/14 05:11:19;;;;;;;;;;;;;;;13.37;100.00;101341.31;5061018;28;19925;-88
2022/07/14 05:13:53;;;;;;;;;;;;;;;14.16;100.00;101328.69;5068191;28;20316;-87
2022/07/14 05:16:21;;;;;;;;;;;;;;;16.42;100.00;101319.25;5067968;28;19927;-89
2022/07/14 05:18:54;;;;;;;;;;;;;;;18.28;100.00;101321.44;5065642;28;19931;-87
2022/07/14 05:21:27;;;;;;;;;;;;;;;19.76;100.00;101311.84;5064496;28;19927;-89
2022/07/14 05:24:01;;;;;;;;;;;;;;;21.14;100.00;101314.38;5064345;28;20384;-86
2022/07/14 05:26:35;;;;;;;;;;;;;;;22.08;100.00;101315.88;5062609;28;20292;-88
2022/07/14 05:29:05;;;;;;;;;;;;;;;22.48;86.83;101313.63;5069779;28;19928;-85
2022/07/14 05:31:33;;;;;;;;;;;;;;;21.90;89.06;101306.09;5071482;28;19924;-86
2022/07/14 05:34:01;;;;;;;;;;;;;;;22.95;74.74;101312.34;5065144;28;19921;-85
2022/07/14 05:36:29;;;;;;;;;;;;;;;21.98;91.06;101312.72;5066790;28;19939;-88
2022/07/14 05:39:00;;;;;;;;;;;;;;;22.37;84.33;101307.72;5072545;28;19924;-87
2022/07/14 05:41:29;;;;;;;;;;;;;;;22.00;93.27;101310.41;5068397;28;20090;-89
2022/07/14 05:44:03;;;;;;;;;;;;;;;21.24;94.28;101318.75;5067671;28;20459;-86
2022/07/14 05:46:32;;;;;;;;;;;;;;;21.62;97.32;101306.72;5070772;28;20388;-88
2022/07/14 05:49:05;;;;;;;;;;;;;;;21.23;97.24;101308.81;5064867;28;19929;-86
2022/07/14 05:51:34;;;;;;;;;;;;;;;20.44;100.00;101306.47;5056720;28;19925;-86
2022/07/14 05:54:02;;;;;;;;;;;;;;;19.64;100.00;101321.59;5062909;28;19921;-87
2022/07/14 05:56:30;;;;;;;;;;;;;;;18.47;100.00;101333.03;5062874;28;19931;-86
2022/07/14 05:59:04;;;;;;;;;;;;;;;18.38;100.00;101325.84;5068997;28;19932;-82
2022/07/14 06:01:37;;;;;;;;;;;;;;;18.45;100.00;101326.19;5066822;28;19920;-90
2022/07/14 06:04:10;;;;;;;;;;;;;;;17.63;100.00;101329.09;5058309;28;20296;-87
2022/07/14 06:06:38;;;;;;;;;;;;;;;17.58;100.00;101323.69;5060836;28;19924;-87
2022/07/14 06:09:06;;;;;;;;;;;;;;;17.47;100.00;101326.72;5058023;28;20002;-90
2022/07/14 06:11:43;;;;;;;;;;;;;;;17.37;100.00;101329.69;5068249;28;19924;-90
2022/07/14 06:14:18;;;;;;;;;;;;;;;17.16;100.00;101319.13;5060277;28;19931;-89
2022/07/14 06:16:51;;;;;;;;;;;;;;;17.19;100.00;101319.66;5062328;28;19920;-85
2022/07/14 06:19:24;;;;;;;;;;;;;;;17.04;100.00;101321.63;5058104;28;19921;-87
2022/07/14 06:21:52;;;;;;;;;;;;;;;16.77;100.00;101320.50;5061761;28;20281;-90
2022/07/14 06:24:22;;;;;;;;;;;;;;;16.65;100.00;101315.53;5068308;28;19945;-87
2022/07/14 06:26:55;;;;;;;;;;;;;;;16.67;100.00;101318.75;5067804;28;19936;-89
2022/07/14 06:29:25;;;;;;;;;;;;;;;16.71;100.00;101310.72;5063813;28;19928;-90
2022/07/14 06:31:55;;;;;;;;;;;;;;;16.81;100.00;101309.72;5060812;28;19924;-89
2022/07/14 06:34:24;;;;;;;;;;;;;;;16.58;100.00;101308.78;5063418;28;19925;-89
2022/07/14 06:37:15;;;;;;;;;;;;;;;16.54;100.00;101314.06;5056796;28;19925;-89
2022/07/14 06:39:43;;;;;;;;;;;;;;;16.72;100.00;101309.59;5061538;28;20046;-92
2022/07/14 06:42:18;;;;;;;;;;;;;;;16.69;100.00;101309.41;5068623;28;19921;-91
2022/07/14 06:45:14;;;;;;;;;;;;;;;16.51;100.00;101317.44;5047936;28;19921;-87
2022/07/14 06:47:42;;;;;;;;;;;;;;;16.43;100.00;101316.22;5056127;28;19939;-90
2022/07/14 06:50:16;;;;;;;;;;;;;;;16.72;100.00;101311.53;5062700;28;19932;-90
2022/07/14 06:52:44;;;;;;;;;;;;;;;16.85;100.00;101302.47;5056534;28;20293;-86
2022/07/14 06:55:12;;;;;;;;;;;;;;;16.81;100.00;101304.22;5065395;28;19932;-88
2022/07/14 06:57:45;;;;;;;;;;;;;;;16.89;100.00;101300.78;5058852;28;19928;-89
2022/07/14 07:00:19;;;;;;;;;;;;;;;17.15;100.00;101298.28;5061751;28;19926;-89
2022/07/14 07:02:52;;;;;;;;;;;;;;;17.00;100.00;101293.91;5063154;28;19947;-86
2022/07/14 07:08:12;;;;;;;;;;;;;;;16.74;100.00;101299.13;5060501;28;19931;-87
2022/07/14 07:10:45;;;;;;;;;;;;;;;16.97;100.00;101300.03;5063053;28;19924;-89
2022/07/14 07:13:18;;;;;;;;;;;;;;;17.04;100.00;101290.56;5058564;28;19920;-89
2022/07/14 07:15:53;;;;;;;;;;;;;;;16.61;100.00;101281.53;5059412;28;19924;-88
2022/07/14 07:18:26;;;;;;;;;;;;;;;16.61;100.00;101277.94;5057477;28;19939;-89
2022/07/14 07:20:54;;;;;;;;;;;;;;;16.76;100.00;101288.63;5061612;28;20388;-87
2022/07/14 07:23:22;;;;;;;;;;;;;;;16.94;100.00;101295.13;5062308;28;19920;-87
2022/07/14 07:25:55;;;;;;;;;;;;;;;16.84;100.00;101285.16;5067702;28;20379;-89
2022/07/14 07:28:27;;;;;;;;;;;;;;;16.90;100.00;101276.84;5012293;28;19935;-82
2022/07/14 07:31:02;;;;;;;;;;;;;;;16.89;100.00;101276.03;5055790;28;19924;-84
2022/07/14 07:33:30;;;;;;;;;;;;;;;16.97;100.00;101283.56;5045926;28;19936;-85
2022/07/14 07:36:04;;;;;;;;;;;;;;;16.58;100.00;101262.88;5040361;28;19928;-89
2022/07/14 07:38:36;;;;;;;;;;;;;;;16.41;100.00;101270.94;5041451;28;20810;-85
2022/07/14 07:41:10;;;;;;;;;;;;;;;16.77;100.00;101261.97;5048524;28;19932;-88
2022/07/14 07:43:43;;;;;;;;;;;;;;;17.01;100.00;101269.97;5041288;28;19935;-87
2022/07/14 07:46:17;;;;;;;;;;;;;;;17.22;100.00;101256.59;5033391;28;19935;-83
2022/07/14 07:48:45;;;;;;;;;;;;;;;17.06;100.00;101258.06;5033513;28;20483;-84
2022/07/14 07:51:21;;;;;;;;;;;;;;;16.50;100.00;101263.59;5034097;28;20033;-84
2022/07/14 07:53:49;;;;;;;;;;;;;;;16.71;100.00;101252.19;5039866;28;20277;-88
2022/07/14 07:56:17;;;;;;;;;;;;;;;17.00;100.00;101252.69;5036409;28;19928;-84
2022/07/14 07:58:50;;;;;;;;;;;;;;;17.40;100.00;101251.22;5030390;28;19928;-82
2022/07/14 08:01:19;;;;;;;;;;;;;;;17.75;100.00;101256.97;5032745;28;19928;-83
2022/07/14 08:03:52;;;;;;;;;;;;;;;17.68;100.00;101249.97;5034492;28;19928;-83
2022/07/14 08:06:25;;;;;;;;;;;;;;;17.52;100.00;101259.72;5035871;28;20210;-82
2022/07/14 08:08:53;;;;;;;;;;;;;;;16.83;100.00;101253.31;5028820;28;19928;-84
2022/07/14 08:11:26;;;;;;;;;;;;;;;17.25;100.00;101246.88;5033941;28;19928;-83
2022/07/14 08:13:59;;;;;;;;;;;;;;;17.57;100.00;101258.81;5037341;28;20239;-84
2022/07/14 08:16:29;;;;;;;;;;;;;;;17.72;100.00;101241.06;5033576;28;19936;-84
2022/07/14 08:19:02;;;;;;;;;;;;;;;18.06;100.00;101229.44;5048326;28;19928;-83
2022/07/14 08:21:35;;;;;;;;;;;;;;;17.90;97.72;101240.06;5041047;28;19955;-83
2022/07/14 08:24:03;;;;;;;;;;;;;;;17.71;100.00;101231.19;5044979;28;19935;-82
2022/07/14 08:26:36;;;;;;;;;;;;;;;17.27;100.00;101239.16;5031324;28;19935;-83
2022/07/14 08:29:09;;;;;;;;;;;;;;;17.01;100.00;101247.97;5006098;28;19975;-84
2022/07/14 08:31:43;;;;;;;;;;;;;;;17.34;100.00;101228.50;5036369;28;19935;-83
2022/07/14 08:34:16;;;;;;;;;;;;;;;17.81;100.00;101228.97;5041551;28;19929;-81
2022/07/14 08:36:49;;;;;;;;;;;;;;;17.81;100.00;101220.72;5041029;28;19928;-82
2022/07/14 08:39:22;;;;;;;;;;;;;;;18.02;92.63;101220.19;5032925;28;19935;-83
2022/07/14 08:41:55;;;;;;;;;;;;;;;18.00;94.37;101219.72;5038557;28;20828;-82
2022/07/14 08:44:28;;;;;;;;;;;;;;;17.97;94.55;101199.13;5037929;28;19951;-81
2022/07/14 08:47:03;;;;;;;;;;;;;;;17.93;92.75;101213.84;5033992;28;19939;-83
2022/07/14 08:49:31;;;;;;;;;;;;;;;17.63;97.82;101211.53;5038387;28;20571;-84
2022/07/14 08:51:59;;;;;;;;;;;;;;;17.23;99.67;101208.69;5032767;28;19928;-83
2022/07/14 08:54:33;;;;;;;;;;;;;;;17.16;100.00;101217.38;5031364;28;19928;-83
2022/07/14 08:57:01;;;;;;;;;;;;;;;17.79;100.00;101208.41;5037075;28;19924;-83
2022/07/14 08:59:29;;;;;;;;;;;;;;;18.26;95.66;101208.78;5036489;28;19928;-84
2022/07/14 09:02:03;;;;;;;;;;;;;;;17.99;92.88;101199.63;5036244;28;20585;-81
2022/07/14 09:04:31;;;;;;;;;;;;;;;18.22;90.88;101198.75;5032858;28;19940;-82
2022/07/14 09:06:59;;;;;;;;;;;;;;;17.97;88.26;101201.09;5031216;28;19928;-83
2022/07/14 09:09:34;;;;;;;;;;;;;;;17.60;92.77;101203.13;5030909;28;19929;-84
2022/07/14 09:12:08;;;;;;;;;;;;;;;17.65;92.60;101203.00;5037983;28;19928;-83
2022/07/14 09:17:29;;;;;;;;;;;;;;;17.94;88.01;101191.50;5035530;28;20308;-83
2022/07/14 09:20:08;;;;;;;;;;;;;;;18.25;94.98;101176.88;5031882;28;19939;-84
2022/07/14 09:22:38;;;;;;;;;;;;;;;18.42;91.03;101181.63;5028794;28;19928;-85
2022/07/14 09:25:12;;;;;;;;;;;;;;;18.17;86.87;101185.91;5033718;28;19928;-83
2022/07/14 09:27:42;;;;;;;;;;;;;;;17.85;90.32;101193.38;5015706;28;19935;-82
2022/07/14 09:30:16;;;;;;;;;;;;;;;17.70;93.59;101197.34;5038052;28;19936;-84
2022/07/14 09:32:51;;;;;;;;;;;;;;;17.64;96.84;101193.91;5043341;28;19928;-83
2022/07/14 09:35:21;;;;;;;;;;;;;;;17.82;99.32;101183.00;5038957;28;19948;-82
2022/07/14 09:37:54;;;;;;;;;;;;;;;18.32;100.00;101176.41;5039200;28;19928;-81
2022/07/14 09:40:25;;;;;;;;;;;;;;;18.45;96.18;101175.47;5040843;28;19928;-82
2022/07/14 09:42:56;;;;;;;;;;;;;;;18.84;89.49;101157.16;5046877;28;19934;-81
2022/07/14 09:45:30;;;;;;;;;;;;;;;19.30;87.18;101156.84;5035365;28;19959;-82
2022/07/14 09:48:00;;;;;;;;;;;;;;;19.41;79.34;101165.59;5038283;28;20030;-82
2022/07/14 09:50:32;;;;;;;;;;;;;;;19.38;90.24;101156.81;5037508;28;19939;-81
2022/07/14 09:53:05;;;;;;;;;;;;;;;19.58;77.49;101156.44;5041446;28;19935;-83
2022/07/14 09:55:39;;;;;;;;;;;;;;;19.89;84.58;101150.69;5041647;28;19928;-81
2022/07/14 09:58:13;;;;;;;;;;;;;;;19.90;77.36;101143.19;5039001;28;19928;-82
2022/07/14 10:00:54;;;;;;;;;;;;;;;20.26;82.28;101139.91;5043752;28;19932;-81
2022/07/14 10:03:24;;;;;;;;;;;;;;;20.25;77.06;101137.50;5043642;28;19928;-83
2022/07/14 10:05:58;;;;;;;;;;;;;;;20.01;82.49;101133.38;5047972;28;19929;-81
2022/07/14 10:08:27;;;;;;;;;;;;;;;19.81;84.75;101137.72;5042160;28;19928;-83
2022/07/14 10:11:01;;;;;;;;;;;;;;;19.60;77.04;101151.41;5043728;28;20621;-82
2022/07/14 10:13:34;;;;;;;;;;;;;;;19.29;81.41;101145.00;5048031;28;19928;-82
2022/07/14 10:16:01;;;;;;;;;;;;;;;19.70;81.51;101140.78;5049538;28;19928;-83
2022/07/14 10:18:36;;;;;;;;;;;;;;;19.77;78.24;101140.28;5046459;28;19935;-81
2022/07/14 10:21:10;;;;;;;;;;;;;;;19.35;79.47;101142.88;5037029;28;19931;-82
2022/07/14 10:23:38;;;;;;;;;;;;;;;19.11;81.40;101146.16;5042350;28;20489;-83
2022/07/14 10:26:11;;;;;;;;;;;;;;;18.85;79.43;101141.41;5041817;28;19927;-83
2022/07/14 10:28:44;;;;;;;;;;;;;;;18.94;85.86;101147.78;5013024;28;20369;-82
2022/07/14 10:31:21;;;;;;;;;;;;;;;19.05;88.95;101144.72;5045737;28;19920;-83
2022/07/14 10:34:00;;;;;;;;;;;;;;;19.15;100.00;101152.63;5049401;28;19924;-83
2022/07/14 10:36:35;;;;;;;;;;;;;;;18.95;96.93;101143.09;5046895;28;19928;-82
2022/07/14 10:39:12;;;;;;;;;;;;;;;18.85;94.11;101141.41;5043323;28;19928;-82
2022/07/14 10:41:56;;;;;;;;;;;;;;;18.66;84.11;101137.06;5039160;28;19928;-83
2022/07/14 10:44:31;;;;;;;;;;;;;;;18.84;92.55;101137.06;5042365;28;19976;-83
2022/07/14 10:47:06;;;;;;;;;;;;;;;19.06;85.17;101129.75;5042828;28;20301;-83
2022/07/14 10:49:59;;;;;;;;;;;;;;;18.95;80.57;101130.09;5043785;28;19951;-83
2022/07/14 10:52:35;;;;;;;;;;;;;;;19.12;86.96;101126.50;5040659;28;19936;-82
2022/07/14 10:55:10;;;;;;;;;;;;;;;19.19;97.28;101120.50;5046399;28;20373;-82
2022/07/14 10:57:38;;;;;;;;;;;;;;;19.23;94.88;101128.94;5038898;28;19928;-83
2022/07/14 11:00:31;;;;;;;;;;;;;;;19.15;83.70;101131.38;5043093;28;19928;-83
2022/07/14 11:03:17;;;;;;;;;;;;;;;19.32;91.26;101135.22;5039085;28;19955;-82
2022/07/14 11:06:09;;;;;;;;;;;;;;;19.25;76.08;101135.75;5042868;28;19928;-81
2022/07/14 11:08:44;;;;;;;;;;;;;;;19.12;74.17;101121.00;5035894;28;20581;-82
2022/07/14 11:11:19;;;;;;;;;;;;;;;19.26;78.38;101111.72;5041397;28;20389;-83
2022/07/14 11:14:07;;;;;;;;;;;;;;;19.15;73.71;101108.50;5040115;28;19924;-83
2022/07/14 11:16:59;;;;;;;;;;;;;;;19.15;80.37;101103.78;5044464;28;19935;-84
2022/07/14 11:19:33;;;;;;;;;;;;;;;19.28;95.42;101107.50;5045949;28;19928;-83
2022/07/14 11:22:14;;;;;;;;;;;;;;;19.18;82.43;101103.16;5045244;28;19929;-83
2022/07/14 11:24:47;;;;;;;;;;;;;;;19.31;77.79;101097.75;5048385;28;19925;-84
2022/07/14 11:27:27;;;;;;;;;;;;;;;19.59;82.80;101102.84;5035274;28;19947;-84
2022/07/14 11:29:56;;;;;;;;;;;;;;;19.59;78.11;101116.66;5002419;28;19928;-83
2022/07/14 11:32:30;;;;;;;;;;;;;;;19.61;76.45;101122.66;5019134;28;19929;-82
2022/07/14 11:37:58;;;;;;;;;;;;;;;19.75;69.63;101114.13;5018213;28;20610;-82
2022/07/14 11:40:48;;;;;;;;;;;;;;;19.78;70.69;101113.50;5016794;28;19930;-80
2022/07/14 11:43:54;;;;;;;;;;;;;;;19.57;84.74;101117.00;5014965;28;19929;-80
2022/07/14 11:46:23;;;;;;;;;;;;;;;19.50;77.61;101100.94;4943555;28;19926;-82
2022/07/14 11:48:53;;;;;;;;;;;;;;;19.64;72.29;101099.91;4947265;28;19930;-82
2022/07/14 11:51:22;;;;;;;;;;;;;;;19.74;86.53;101102.28;4982109;28;19928;-83
2022/07/14 11:53:57;;;;;;;;;;;;;;;19.54;67.87;101106.59;5020454;28;20412;-83
2022/07/14 11:56:31;;;;;;;;;;;;;;;19.47;75.17;101117.34;5025100;28;19929;-81
2022/07/14 11:59:02;;;;;;;;;;;;;;;19.21;78.83;101115.47;5021965;28;19928;-82
2022/07/14 12:01:36;;;;;;;;;;;;;;;19.08;82.02;101108.19;5021335;28;19971;-82
2022/07/14 12:04:12;;;;;;;;;;;;;;;19.06;77.43;101102.19;5018811;28;19935;-81
2022/07/14 12:06:41;;;;;;;;;;;;;;;18.98;82.38;101104.63;5018180;28;19928;-80
2022/07/14 12:09:16;;;;;;;;;;;;;;;19.00;90.89;101107.88;5016263;28;19932;-81
2022/07/14 12:11:52;;;;;;;;;;;;;;;19.16;88.66;101105.41;5020163;28;19928;-81
2022/07/14 12:14:25;;;;;;;;;;;;;;;19.30;79.62;101099.69;5020873;28;19943;-80
2022/07/14 12:16:53;;;;;;;;;;;;;;;19.12;81.75;101101.69;5027782;28;20385;-82
2022/07/14 12:19:26;;;;;;;;;;;;;;;18.95;84.29;101088.75;5022209;28;19936;-79
2022/07/14 12:22:00;;;;;;;;;;;;;;;18.83;83.54;101094.06;5024897;28;19929;-83
2022/07/14 12:24:28;;;;;;;;;;;;;;;18.83;89.20;101080.28;5023454;28;19928;-82
2022/07/14 12:27:04;;;;;;;;;;;;;;;19.09;90.93;101085.78;5025060;28;20647;-82
2022/07/14 12:29:46;;;;;;;;;;;;;;;19.37;87.67;101083.44;4989207;28;19928;-80
2022/07/14 12:32:25;;;;;;;;;;;;;;;19.49;86.59;101080.00;5021640;28;19928;-83
2022/07/14 12:34:58;;;;;;;;;;;;;;;19.40;78.33;101068.16;5020574;28;19935;-81
2022/07/14 12:37:31;;;;;;;;;;;;;;;19.25;87.66;101063.19;5019138;28;20417;-81
2022/07/14 12:40:05;;;;;;;;;;;;;;;19.00;77.78;101063.75;5012442;28;19928;-82
2022/07/14 12:42:39;;;;;;;;;;;;;;;18.97;87.88;101080.13;5018712;28;20592;-81
2022/07/14 12:45:12;;;;;;;;;;;;;;;18.94;83.85;101064.25;5019117;28;19921;-82
2022/07/14 12:47:48;;;;;;;;;;;;;;;18.90;92.21;101055.81;5022767;28;20693;-82
2022/07/14 12:50:21;;;;;;;;;;;;;;;18.93;91.18;101071.69;5020986;28;19928;-81
2022/07/14 12:52:55;;;;;;;;;;;;;;;18.86;91.18;101071.34;5025282;28;19935;-82
2022/07/14 12:55:32;;;;;;;;;;;;;;;18.92;88.75;101072.03;5020725;28;20880;-83
2022/07/14 12:58:06;;;;;;;;;;;;;;;18.90;89.21;101077.06;5026475;28;19928;-83
2022/07/14 13:00:40;;;;;;;;;;;;;;;19.04;86.37;101074.94;5022791;28;19936;-81
2022/07/14 13:03:14;;;;;;;;;;;;;;;18.95;84.81;101082.44;5024057;28;19931;-82
2022/07/14 13:05:48;;;;;;;;;;;;;;;18.75;88.31;101079.16;5029643;28;19924;-84
2022/07/14 13:08:33;;;;;;;;;;;;;;;18.75;88.16;101075.59;5020570;28;19929;-84
2022/07/14 13:11:08;;;;;;;;;;;;;;;18.90;100.00;101082.59;5041938;28;19929;-84
2022/07/14 13:13:45;;;;;;;;;;;;;;;18.84;82.38;101092.94;5017851;28;19929;-83
2022/07/14 13:16:23;;;;;;;;;;;;;;;18.80;80.66;101080.94;5024805;28;19927;-82